Terminal Aerodrome Forecast
Issued by NWS Louisville, KY

Home | Current Version | Previous Version | Text Only | Print | Product List | Glossary On
Versions: 1 2 3 4 5 6 7 8 9 10 11 12 13 14 15
000
FTUS43 KLMK 201100
TAFBWG
TAF
KBWG 201120Z 2012/2112 18005KT P6SM SCT040
     FM201500 20010KT P6SM SCT045
     FM210000 20003KT P6SM SCT250=

USA.gov is the U.S. government's official web portal to all federal, state and local government web resources and services.